sensor_id;sensor_type;location;lat;lon;timestamp;pressure;altitude;pressure_sealevel;temperature
65738;BMP280;52478;51.844;6.582;2023-07-28T00:01:01;100154.78;;;22.88
65738;BMP280;52478;51.844;6.582;2023-07-28T00:03:28;100157.06;;;22.97
65738;BMP280;52478;51.844;6.582;2023-07-28T00:05:54;100155.72;;;22.90
65738;BMP280;52478;51.844;6.582;2023-07-28T00:08:21;100162.25;;;22.93
65738;BMP280;52478;51.844;6.582;2023-07-28T00:10:47;100159.56;;;22.80
65738;BMP280;52478;51.844;6.582;2023-07-28T00:13:14;100164.16;;;22.70
65738;BMP280;52478;51.844;6.582;2023-07-28T00:15:41;100157.00;;;22.82
65738;BMP280;52478;51.844;6.582;2023-07-28T00:18:08;100175.91;;;22.76
65738;BMP280;52478;51.844;6.582;2023-07-28T00:20:34;100165.00;;;22.85
65738;BMP280;52478;51.844;6.582;2023-07-28T00:23:01;100165.88;;;22.73
65738;BMP280;52478;51.844;6.582;2023-07-28T00:25:27;100167.28;;;22.59
65738;BMP280;52478;51.844;6.582;2023-07-28T00:27:55;100173.25;;;22.63
65738;BMP280;52478;51.844;6.582;2023-07-28T00:30:21;100166.97;;;22.70
65738;BMP280;52478;51.844;6.582;2023-07-28T00:32:49;100168.13;;;22.74
65738;BMP280;52478;51.844;6.582;2023-07-28T00:35:16;100177.63;;;22.79
65738;BMP280;52478;51.844;6.582;2023-07-28T00:37:43;100177.81;;;22.81
65738;BMP280;52478;51.844;6.582;2023-07-28T00:40:10;100178.16;;;22.77
65738;BMP280;52478;51.844;6.582;2023-07-28T00:42:37;100181.31;;;22.74
65738;BMP280;52478;51.844;6.582;2023-07-28T00:45:05;100180.78;;;22.75
65738;BMP280;52478;51.844;6.582;2023-07-28T00:47:31;100186.00;;;22.79
65738;BMP280;52478;51.844;6.582;2023-07-28T00:49:59;100184.34;;;22.83
65738;BMP280;52478;51.844;6.582;2023-07-28T00:52:26;100180.41;;;22.79
65738;BMP280;52478;51.844;6.582;2023-07-28T00:54:52;100183.22;;;22.79
65738;BMP280;52478;51.844;6.582;2023-07-28T00:57:19;100184.91;;;22.82
65738;BMP280;52478;51.844;6.582;2023-07-28T00:59:46;100187.41;;;22.72
65738;BMP280;52478;51.844;6.582;2023-07-28T01:02:12;100187.63;;;22.67
65738;BMP280;52478;51.844;6.582;2023-07-28T01:04:40;100193.78;;;22.73
65738;BMP280;52478;51.844;6.582;2023-07-28T01:07:10;100199.34;;;22.73
65738;BMP280;52478;51.844;6.582;2023-07-28T01:09:43;100190.53;;;22.89
65738;BMP280;52478;51.844;6.582;2023-07-28T01:12:12;100192.22;;;22.92
65738;BMP280;52478;51.844;6.582;2023-07-28T01:14:39;100195.19;;;22.94
65738;BMP280;52478;51.844;6.582;2023-07-28T01:17:05;100198.56;;;23.00
65738;BMP280;52478;51.844;6.582;2023-07-28T01:19:32;100201.78;;;23.19
65738;BMP280;52478;51.844;6.582;2023-07-28T01:22:16;100201.09;;;23.26
65738;BMP280;52478;51.844;6.582;2023-07-28T01:24:51;100189.53;;;23.22
65738;BMP280;52478;51.844;6.582;2023-07-28T01:27:23;100190.97;;;23.16
65738;BMP280;52478;51.844;6.582;2023-07-28T01:29:50;100201.44;;;23.15
65738;BMP280;52478;51.844;6.582;2023-07-28T01:32:17;100189.38;;;23.27
65738;BMP280;52478;51.844;6.582;2023-07-28T01:34:43;100188.06;;;23.28
65738;BMP280;52478;51.844;6.582;2023-07-28T01:37:10;100185.84;;;23.34
65738;BMP280;52478;51.844;6.582;2023-07-28T01:39:37;100183.56;;;23.18
65738;BMP280;52478;51.844;6.582;2023-07-28T01:42:04;100192.91;;;23.28
65738;BMP280;52478;51.844;6.582;2023-07-28T01:44:32;100187.50;;;23.23
65738;BMP280;52478;51.844;6.582;2023-07-28T01:46:58;100178.75;;;23.33
65738;BMP280;52478;51.844;6.582;2023-07-28T01:49:25;100179.91;;;23.30
65738;BMP280;52478;51.844;6.582;2023-07-28T01:51:51;100181.41;;;23.39
65738;BMP280;52478;51.844;6.582;2023-07-28T01:54:18;100185.69;;;23.32
65738;BMP280;52478;51.844;6.582;2023-07-28T01:56:44;100189.56;;;23.29
65738;BMP280;52478;51.844;6.582;2023-07-28T01:59:11;100188.84;;;23.36
65738;BMP280;52478;51.844;6.582;2023-07-28T02:01:40;100187.53;;;23.37
65738;BMP280;52478;51.844;6.582;2023-07-28T02:04:06;100189.22;;;23.40
65738;BMP280;52478;51.844;6.582;2023-07-28T02:06:33;100186.06;;;23.36
65738;BMP280;52478;51.844;6.582;2023-07-28T02:08:59;100184.19;;;23.31
65738;BMP280;52478;51.844;6.582;2023-07-28T02:11:26;100184.56;;;23.35
65738;BMP280;52478;51.844;6.582;2023-07-28T02:13:52;100191.41;;;23.34
65738;BMP280;52478;51.844;6.582;2023-07-28T02:16:19;100188.88;;;23.44
65738;BMP280;52478;51.844;6.582;2023-07-28T02:18:47;100186.44;;;23.40
65738;BMP280;52478;51.844;6.582;2023-07-28T02:21:14;100185.28;;;23.28
65738;BMP280;52478;51.844;6.582;2023-07-28T02:23:40;100185.84;;;23.34
65738;BMP280;52478;51.844;6.582;2023-07-28T02:26:07;100183.97;;;23.37
65738;BMP280;52478;51.844;6.582;2023-07-28T02:28:33;100177.84;;;23.38
65738;BMP280;52478;51.844;6.582;2023-07-28T02:31:00;100176.94;;;23.43
65738;BMP280;52478;51.844;6.582;2023-07-28T02:33:27;100171.53;;;23.45
65738;BMP280;52478;51.844;6.582;2023-07-28T02:35:56;100161.69;;;23.44
65738;BMP280;52478;51.844;6.582;2023-07-28T02:38:22;100168.75;;;23.45
65738;BMP280;52478;51.844;6.582;2023-07-28T02:40:49;100186.66;;;23.57
65738;BMP280;52478;51.844;6.582;2023-07-28T02:43:15;100194.47;;;23.66
65738;BMP280;52478;51.844;6.582;2023-07-28T02:45:42;100197.25;;;23.44
65738;BMP280;52478;51.844;6.582;2023-07-28T02:48:08;100191.88;;;23.53
65738;BMP280;52478;51.844;6.582;2023-07-28T02:50:35;100196.50;;;23.51
65738;BMP280;52478;51.844;6.582;2023-07-28T02:53:03;100191.50;;;23.49
65738;BMP280;52478;51.844;6.582;2023-07-28T02:55:29;100194.69;;;23.53
65738;BMP280;52478;51.844;6.582;2023-07-28T02:57:56;100201.88;;;23.34
65738;BMP280;52478;51.844;6.582;2023-07-28T03:00:22;100200.53;;;23.27
65738;BMP280;52478;51.844;6.582;2023-07-28T03:02:49;100203.34;;;23.27
65738;BMP280;52478;51.844;6.582;2023-07-28T03:05:15;100210.34;;;23.14
65738;BMP280;52478;51.844;6.582;2023-07-28T03:07:42;100205.94;;;23.26
65738;BMP280;52478;51.844;6.582;2023-07-28T03:10:11;100218.59;;;23.27
65738;BMP280;52478;51.844;6.582;2023-07-28T03:12:41;100209.63;;;23.21
65738;BMP280;52478;51.844;6.582;2023-07-28T03:15:08;100212.22;;;23.11
65738;BMP280;52478;51.844;6.582;2023-07-28T03:17:35;100206.06;;;23.13
65738;BMP280;52478;51.844;6.582;2023-07-28T03:20:01;100213.31;;;23.08
65738;BMP280;52478;51.844;6.582;2023-07-28T03:22:28;100214.97;;;23.04
65738;BMP280;52478;51.844;6.582;2023-07-28T03:24:56;100217.38;;;23.00
65738;BMP280;52478;51.844;6.582;2023-07-28T03:27:24;100215.09;;;22.98
65738;BMP280;52478;51.844;6.582;2023-07-28T03:29:50;100221.25;;;22.97
65738;BMP280;52478;51.844;6.582;2023-07-28T03:32:17;100223.84;;;22.95
65738;BMP280;52478;51.844;6.582;2023-07-28T03:34:43;100218.25;;;22.95
65738;BMP280;52478;51.844;6.582;2023-07-28T03:37:10;100224.19;;;22.91
65738;BMP280;52478;51.844;6.582;2023-07-28T03:39:36;100221.75;;;22.88
65738;BMP280;52478;51.844;6.582;2023-07-28T03:42:04;100218.91;;;22.80
65738;BMP280;52478;51.844;6.582;2023-07-28T03:44:32;100226.13;;;22.76
65738;BMP280;52478;51.844;6.582;2023-07-28T03:46:59;100223.16;;;22.74
65738;BMP280;52478;51.844;6.582;2023-07-28T03:49:25;100220.72;;;22.70
65738;BMP280;52478;51.844;6.582;2023-07-28T03:51:52;100231.34;;;22.72
65738;BMP280;52478;51.844;6.582;2023-07-28T03:54:18;100228.75;;;22.74
65738;BMP280;52478;51.844;6.582;2023-07-28T03:56:45;100237.59;;;22.65
65738;BMP280;52478;51.844;6.582;2023-07-28T03:59:11;100232.03;;;22.65
65738;BMP280;52478;51.844;6.582;2023-07-28T04:01:39;100231.66;;;22.68
65738;BMP280;52478;51.844;6.582;2023-07-28T04:04:05;100237.59;;;22.65
65738;BMP280;52478;51.844;6.582;2023-07-28T04:06:40;100235.13;;;22.54
65738;BMP280;52478;51.844;6.582;2023-07-28T04:09:07;100231.63;;;22.61
65738;BMP280;52478;51.844;6.582;2023-07-28T04:11:34;100229.47;;;22.67
65738;BMP280;52478;51.844;6.582;2023-07-28T04:14:01;100232.25;;;22.67
65738;BMP280;52478;51.844;6.582;2023-07-28T04:16:27;100235.41;;;22.71
65738;BMP280;52478;51.844;6.582;2023-07-28T04:18:55;100232.63;;;22.71
65738;BMP280;52478;51.844;6.582;2023-07-28T04:21:22;100233.91;;;22.70
65738;BMP280;52478;51.844;6.582;2023-07-28T04:23:49;100236.81;;;22.57
65738;BMP280;52478;51.844;6.582;2023-07-28T04:26:16;100239.19;;;22.53
65738;BMP280;52478;51.844;6.582;2023-07-28T04:28:42;100240.91;;;22.56
65738;BMP280;52478;51.844;6.582;2023-07-28T04:31:10;100229.47;;;22.67
65738;BMP280;52478;51.844;6.582;2023-07-28T04:33:36;100245.56;;;22.61
65738;BMP280;52478;51.844;6.582;2023-07-28T04:36:05;100251.06;;;22.74
65738;BMP280;52478;51.844;6.582;2023-07-28T04:38:32;100244.50;;;22.64
65738;BMP280;52478;51.844;6.582;2023-07-28T04:40:58;100259.91;;;22.65
65738;BMP280;52478;51.844;6.582;2023-07-28T04:43:25;100266.66;;;22.69
65738;BMP280;52478;51.844;6.582;2023-07-28T04:45:52;100259.47;;;22.53
65738;BMP280;52478;51.844;6.582;2023-07-28T04:48:18;100256.50;;;22.51
65738;BMP280;52478;51.844;6.582;2023-07-28T04:50:45;100262.25;;;22.53
65738;BMP280;52478;51.844;6.582;2023-07-28T04:53:13;100267.28;;;22.55
65738;BMP280;52478;51.844;6.582;2023-07-28T04:55:39;100264.91;;;22.59
65738;BMP280;52478;51.844;6.582;2023-07-28T04:58:06;100267.69;;;22.59
65738;BMP280;52478;51.844;6.582;2023-07-28T05:00:32;100275.47;;;22.53
65738;BMP280;52478;51.844;6.582;2023-07-28T05:02:59;100272.88;;;22.55
65738;BMP280;52478;51.844;6.582;2023-07-28T05:05:25;100273.91;;;22.44
65738;BMP280;52478;51.844;6.582;2023-07-28T05:07:52;100275.06;;;22.49
65738;BMP280;52478;51.844;6.582;2023-07-28T05:10:20;100265.38;;;22.50
65738;BMP280;52478;51.844;6.582;2023-07-28T05:12:46;100275.81;;;22.49
65738;BMP280;52478;51.844;6.582;2023-07-28T05:15:14;100260.22;;;22.54
65738;BMP280;52478;51.844;6.582;2023-07-28T05:17:41;100266.47;;;22.47
65738;BMP280;52478;51.844;6.582;2023-07-28T05:20:08;100266.47;;;22.47
65738;BMP280;52478;51.844;6.582;2023-07-28T05:22:35;100265.53;;;22.44
65738;BMP280;52478;51.844;6.582;2023-07-28T05:25:02;100260.50;;;22.43
65738;BMP280;52478;51.844;6.582;2023-07-28T05:27:29;100264.66;;;22.49
65738;BMP280;52478;51.844;6.582;2023-07-28T05:29:56;100268.28;;;22.37
65738;BMP280;52478;51.844;6.582;2023-07-28T05:32:22;100256.69;;;22.33
65738;BMP280;52478;51.844;6.582;2023-07-28T05:34:49;100262.19;;;22.46
65738;BMP280;52478;51.844;6.582;2023-07-28T05:37:15;100260.16;;;22.46
65738;BMP280;52478;51.844;6.582;2023-07-28T05:39:42;100265.66;;;22.59
65738;BMP280;52478;51.844;6.582;2023-07-28T05:42:09;100273.97;;;22.80
65738;BMP280;52478;51.844;6.582;2023-07-28T05:44:37;100278.38;;;22.96
65738;BMP280;52478;51.844;6.582;2023-07-28T05:47:04;100283.66;;;23.07
65738;BMP280;52478;51.844;6.582;2023-07-28T05:49:31;100278.09;;;23.14
65738;BMP280;52478;51.844;6.582;2023-07-28T05:51:58;100282.22;;;23.21
65738;BMP280;52478;51.844;6.582;2023-07-28T05:54:24;100283.56;;;23.27
65738;BMP280;52478;51.844;6.582;2023-07-28T05:56:51;100293.09;;;23.31
65738;BMP280;52478;51.844;6.582;2023-07-28T05:59:17;100292.19;;;23.36
65738;BMP280;52478;51.844;6.582;2023-07-28T06:01:45;100298.16;;;23.40
65738;BMP280;52478;51.844;6.582;2023-07-28T06:04:12;100306.94;;;23.44
65738;BMP280;52478;51.844;6.582;2023-07-28T06:06:38;100308.63;;;23.47
65738;BMP280;52478;51.844;6.582;2023-07-28T06:09:05;100309.56;;;23.50
65738;BMP280;52478;51.844;6.582;2023-07-28T06:11:31;100309.00;;;23.51
65738;BMP280;52478;51.844;6.582;2023-07-28T06:13:58;100306.44;;;23.53
65738;BMP280;52478;51.844;6.582;2023-07-28T06:16:24;100314.44;;;23.57
65738;BMP280;52478;51.844;6.582;2023-07-28T06:18:52;100311.09;;;23.58
65738;BMP280;52478;51.844;6.582;2023-07-28T06:21:19;100314.06;;;23.60
65738;BMP280;52478;51.844;6.582;2023-07-28T06:23:45;100315.56;;;23.61
65738;BMP280;52478;51.844;6.582;2023-07-28T06:26:12;100316.50;;;23.64
65738;BMP280;52478;51.844;6.582;2023-07-28T06:28:38;100323.00;;;23.66
65738;BMP280;52478;51.844;6.582;2023-07-28T06:31:05;100321.53;;;23.65
65738;BMP280;52478;51.844;6.582;2023-07-28T06:33:32;100320.00;;;23.49
65738;BMP280;52478;51.844;6.582;2023-07-28T06:35:59;100328.19;;;23.47
65738;BMP280;52478;51.844;6.582;2023-07-28T06:38:26;100320.00;;;23.49
65738;BMP280;52478;51.844;6.582;2023-07-28T06:40:53;100339.00;;;23.51
65738;BMP280;52478;51.844;6.582;2023-07-28T06:43:20;100332.66;;;23.50
65738;BMP280;52478;51.844;6.582;2023-07-28T06:45:47;100333.97;;;23.49
65738;BMP280;52478;51.844;6.582;2023-07-28T06:48:13;100336.41;;;23.53
65738;BMP280;52478;51.844;6.582;2023-07-28T06:50:40;100334.53;;;23.55
65738;BMP280;52478;51.844;6.582;2023-07-28T06:53:07;100335.28;;;23.56
65738;BMP280;52478;51.844;6.582;2023-07-28T06:55:34;100337.53;;;23.57
65738;BMP280;52478;51.844;6.582;2023-07-28T06:58:04;100336.44;;;23.60
65738;BMP280;52478;51.844;6.582;2023-07-28T07:00:30;100343.19;;;23.65
65738;BMP280;52478;51.844;6.582;2023-07-28T07:02:57;100341.66;;;23.64
65738;BMP280;52478;51.844;6.582;2023-07-28T07:05:24;100337.00;;;23.66
65738;BMP280;52478;51.844;6.582;2023-07-28T07:07:50;100348.41;;;23.68
65738;BMP280;52478;51.844;6.582;2023-07-28T07:10:19;100352.84;;;23.71
65738;BMP280;52478;51.844;6.582;2023-07-28T07:12:46;100348.75;;;23.72
65738;BMP280;52478;51.844;6.582;2023-07-28T07:15:12;100362.19;;;23.74
65738;BMP280;52478;51.844;6.582;2023-07-28T07:17:39;100362.19;;;23.74
65738;BMP280;52478;51.844;6.582;2023-07-28T07:20:07;100370.38;;;23.72
65738;BMP280;52478;51.844;6.582;2023-07-28T07:22:35;100367.03;;;23.73
65738;BMP280;52478;51.844;6.582;2023-07-28T07:25:02;100367.22;;;23.75
65738;BMP280;52478;51.844;6.582;2023-07-28T07:27:30;100370.03;;;23.75
65738;BMP280;52478;51.844;6.582;2023-07-28T07:29:57;100367.97;;;23.76
65738;BMP280;52478;51.844;6.582;2023-07-28T07:32:23;100369.47;;;23.77
65738;BMP280;52478;51.844;6.582;2023-07-28T07:34:50;100378.59;;;23.77
65738;BMP280;52478;51.844;6.582;2023-07-28T07:37:18;100383.06;;;23.80
65738;BMP280;52478;51.844;6.582;2023-07-28T07:39:44;100378.25;;;23.81
65738;BMP280;52478;51.844;6.582;2023-07-28T07:42:11;100388.88;;;23.82
65738;BMP280;52478;51.844;6.582;2023-07-28T07:44:40;100384.59;;;23.81
65738;BMP280;52478;51.844;6.582;2023-07-28T07:47:13;100394.47;;;23.82
65738;BMP280;52478;51.844;6.582;2023-07-28T07:49:40;100398.75;;;23.83
65738;BMP280;52478;51.844;6.582;2023-07-28T07:52:07;100395.41;;;23.85
65738;BMP280;52478;51.844;6.582;2023-07-28T07:54:34;100396.16;;;23.85
65738;BMP280;52478;51.844;6.582;2023-07-28T07:57:01;100398.38;;;23.87
65738;BMP280;52478;51.844;6.582;2023-07-28T07:59:27;100391.69;;;23.82
65738;BMP280;52478;51.844;6.582;2023-07-28T08:01:58;100393.72;;;23.82
65738;BMP280;52478;51.844;6.582;2023-07-28T08:04:25;100399.84;;;23.80
65738;BMP280;52478;51.844;6.582;2023-07-28T08:06:53;100398.38;;;23.79
65738;BMP280;52478;51.844;6.582;2023-07-28T08:09:19;100407.28;;;23.78
65738;BMP280;52478;51.844;6.582;2023-07-28T08:11:46;100406.56;;;23.77
65738;BMP280;52478;51.844;6.582;2023-07-28T08:14:12;100396.66;;;23.76
65738;BMP280;52478;51.844;6.582;2023-07-28T08:16:39;100404.28;;;23.76
65738;BMP280;52478;51.844;6.582;2023-07-28T08:19:07;100400.56;;;23.73
65738;BMP280;52478;51.844;6.582;2023-07-28T08:21:33;100407.44;;;23.72
65738;BMP280;52478;51.844;6.582;2023-07-28T08:24:01;100410.25;;;23.72
65738;BMP280;52478;51.844;6.582;2023-07-28T08:26:29;100407.66;;;23.74
65738;BMP280;52478;51.844;6.582;2023-07-28T08:28:55;100400.94;;;23.70
65738;BMP280;52478;51.844;6.582;2023-07-28T08:31:22;100406.16;;;23.73
65738;BMP280;52478;51.844;6.582;2023-07-28T08:33:48;100408.41;;;23.75
65738;BMP280;52478;51.844;6.582;2023-07-28T08:36:16;100405.06;;;23.76
65738;BMP280;52478;51.844;6.582;2023-07-28T08:38:43;100404.66;;;23.72
65738;BMP280;52478;51.844;6.582;2023-07-28T08:41:10;100406.16;;;23.73
65738;BMP280;52478;51.844;6.582;2023-07-28T08:43:37;100411.75;;;23.73
65738;BMP280;52478;51.844;6.582;2023-07-28T08:46:03;100409.88;;;23.68
65738;BMP280;52478;51.844;6.582;2023-07-28T08:48:30;100412.44;;;23.66
65738;BMP280;52478;51.844;6.582;2023-07-28T08:50:56;100416.16;;;23.61
65738;BMP280;52478;51.844;6.582;2023-07-28T08:53:24;100423.44;;;23.64
65738;BMP280;52478;51.844;6.582;2023-07-28T08:55:51;100426.66;;;23.68
65738;BMP280;52478;51.844;6.582;2023-07-28T08:58:20;100421.06;;;23.68
65738;BMP280;52478;51.844;6.582;2023-07-28T09:00:47;100425.16;;;23.67
65738;BMP280;52478;51.844;6.582;2023-07-28T09:03:15;100426.66;;;23.68
65738;BMP280;52478;51.844;6.582;2023-07-28T09:05:42;100430.50;;;23.65
65738;BMP280;52478;51.844;6.582;2023-07-28T09:08:09;100426.25;;;23.64
65738;BMP280;52478;51.844;6.582;2023-07-28T09:10:44;100428.13;;;23.69
65738;BMP280;52478;51.844;6.582;2023-07-28T09:13:11;100437.81;;;23.68
65738;BMP280;52478;51.844;6.582;2023-07-28T09:15:38;100435.56;;;23.67
65738;BMP280;52478;51.844;6.582;2023-07-28T09:18:07;100431.06;;;23.64
65738;BMP280;52478;51.844;6.582;2023-07-28T09:20:35;100431.84;;;23.64
65738;BMP280;52478;51.844;6.582;2023-07-28T09:23:02;100439.66;;;23.66
65738;BMP280;52478;51.844;6.582;2023-07-28T09:25:31;100448.59;;;23.64
65738;BMP280;52478;51.844;6.582;2023-07-28T09:27:59;100435.00;;;23.61
65738;BMP280;52478;51.844;6.582;2023-07-28T09:30:26;100440.00;;;23.62
65738;BMP280;52478;51.844;6.582;2023-07-28T09:32:54;100433.28;;;23.58
65738;BMP280;52478;51.844;6.582;2023-07-28T09:35:21;100433.28;;;23.58
65738;BMP280;52478;51.844;6.582;2023-07-28T09:37:50;100429.94;;;23.59
65738;BMP280;52478;51.844;6.582;2023-07-28T09:40:19;100431.19;;;23.51
65738;BMP280;52478;51.844;6.582;2023-07-28T09:42:47;100440.69;;;23.55
65738;BMP280;52478;51.844;6.582;2023-07-28T09:45:17;100444.47;;;23.58
65738;BMP280;52478;51.844;6.582;2023-07-28T09:47:45;100436.25;;;23.60
65738;BMP280;52478;51.844;6.582;2023-07-28T09:50:14;100441.69;;;23.65
65738;BMP280;52478;51.844;6.582;2023-07-28T09:52:42;100444.09;;;23.61
65738;BMP280;52478;51.844;6.582;2023-07-28T09:55:10;100436.81;;;23.58
65738;BMP280;52478;51.844;6.582;2023-07-28T09:57:41;100442.59;;;23.60
65738;BMP280;52478;51.844;6.582;2023-07-28T10:00:11;100443.19;;;23.66
65738;BMP280;52478;51.844;6.582;2023-07-28T10:02:40;100445.63;;;23.70
65738;BMP280;52478;51.844;6.582;2023-07-28T10:05:07;100442.50;;;23.73
65738;BMP280;52478;51.844;6.582;2023-07-28T10:07:37;100449.00;;;23.76
65738;BMP280;52478;51.844;6.582;2023-07-28T10:10:06;100452.78;;;23.78
65738;BMP280;52478;51.844;6.582;2023-07-28T10:12:40;100450.16;;;23.80
65738;BMP280;52478;51.844;6.582;2023-07-28T10:15:12;100450.91;;;23.81
65738;BMP280;52478;51.844;6.582;2023-07-28T10:17:43;100449.06;;;23.83
65738;BMP280;52478;51.844;6.582;2023-07-28T10:20:29;100446.47;;;23.85
65738;BMP280;52478;51.844;6.582;2023-07-28T10:23:02;100458.41;;;23.86
65738;BMP280;52478;51.844;6.582;2023-07-28T10:25:32;100460.28;;;23.91
65738;BMP280;52478;51.844;6.582;2023-07-28T10:27:59;100460.50;;;23.93
65738;BMP280;52478;51.844;6.582;2023-07-28T10:30:32;100455.84;;;23.95
65738;BMP280;52478;51.844;6.582;2023-07-28T10:33:03;100461.06;;;23.99
65738;BMP280;52478;51.844;6.582;2023-07-28T10:35:30;100464.81;;;24.01
65738;BMP280;52478;51.844;6.582;2023-07-28T10:38:28;100460.91;;;24.04
65738;BMP280;52478;51.844;6.582;2023-07-28T10:41:05;100462.81;;;24.09
65738;BMP280;52478;51.844;6.582;2023-07-28T10:43:32;100472.69;;;24.10
65738;BMP280;52478;51.844;6.582;2023-07-28T10:45:59;100466.00;;;24.13
65738;BMP280;52478;51.844;6.582;2023-07-28T10:48:27;100467.84;;;24.18
65738;BMP280;52478;51.844;6.582;2023-07-28T10:50:53;100459.84;;;24.22
65738;BMP280;52478;51.844;6.582;2023-07-28T10:53:20;100468.44;;;24.24
65738;BMP280;52478;51.844;6.582;2023-07-28T10:55:47;100466.00;;;24.28
65738;BMP280;52478;51.844;6.582;2023-07-28T10:58:13;100461.38;;;24.30
65738;BMP280;52478;51.844;6.582;2023-07-28T11:00:40;100459.50;;;24.33
65738;BMP280;52478;51.844;6.582;2023-07-28T11:03:08;100466.25;;;24.37
65738;BMP280;52478;51.844;6.582;2023-07-28T11:05:36;100456.00;;;24.40
65738;BMP280;52478;51.844;6.582;2023-07-28T11:08:03;100457.13;;;24.44
65738;BMP280;52478;51.844;6.582;2023-07-28T11:10:30;100463.47;;;24.45
65738;BMP280;52478;51.844;6.582;2023-07-28T11:13:00;100456.75;;;24.48
65738;BMP280;52478;51.844;6.582;2023-07-28T11:15:26;100466.09;;;24.50
65738;BMP280;52478;51.844;6.582;2023-07-28T11:17:54;100461.41;;;24.53
65738;BMP280;52478;51.844;6.582;2023-07-28T11:20:21;100460.88;;;24.54
65738;BMP280;52478;51.844;6.582;2023-07-28T11:22:53;100458.28;;;24.56
65738;BMP280;52478;51.844;6.582;2023-07-28T11:25:20;100462.19;;;24.61
65738;BMP280;52478;51.844;6.582;2023-07-28T11:27:47;100465.38;;;24.65
65738;BMP280;52478;51.844;6.582;2023-07-28T11:30:15;100466.50;;;24.69
65738;BMP280;52478;51.844;6.582;2023-07-28T11:32:43;100461.25;;;24.73
65738;BMP280;52478;51.844;6.582;2023-07-28T11:35:12;100467.63;;;24.74
65738;BMP280;52478;51.844;6.582;2023-07-28T11:37:40;100463.13;;;24.71
65738;BMP280;52478;51.844;6.582;2023-07-28T11:40:10;100469.13;;;24.75
65738;BMP280;52478;51.844;6.582;2023-07-28T11:42:38;100465.75;;;24.76
65738;BMP280;52478;51.844;6.582;2023-07-28T11:45:06;100469.31;;;24.77
65738;BMP280;52478;51.844;6.582;2023-07-28T11:47:33;100465.75;;;24.76
65738;BMP280;52478;51.844;6.582;2023-07-28T11:50:00;100466.69;;;24.79
65738;BMP280;52478;51.844;6.582;2023-07-28T11:52:30;100466.13;;;24.80
65738;BMP280;52478;51.844;6.582;2023-07-28T11:54:58;100467.81;;;24.83
65738;BMP280;52478;51.844;6.582;2023-07-28T11:57:26;100464.47;;;24.85
65738;BMP280;52478;51.844;6.582;2023-07-28T11:59:56;100463.34;;;24.88
65738;BMP280;52478;51.844;6.582;2023-07-28T12:02:27;100472.13;;;24.92
65738;BMP280;52478;51.844;6.582;2023-07-28T12:04:54;100471.75;;;24.95
65738;BMP280;52478;51.844;6.582;2023-07-28T12:07:28;100470.25;;;24.94
65738;BMP280;52478;51.844;6.582;2023-07-28T12:09:55;100469.16;;;24.97
65738;BMP280;52478;51.844;6.582;2023-07-28T12:12:27;100469.31;;;24.99
65738;BMP280;52478;51.844;6.582;2023-07-28T12:14:54;100469.53;;;25.01
65738;BMP280;52478;51.844;6.582;2023-07-28T12:17:22;100471.19;;;25.04
65738;BMP280;52478;51.844;6.582;2023-07-28T12:20:01;100471.38;;;25.06
65738;BMP280;52478;51.844;6.582;2023-07-28T12:22:31;100469.16;;;25.05
65738;BMP280;52478;51.844;6.582;2023-07-28T12:24:58;100465.38;;;25.02
65738;BMP280;52478;51.844;6.582;2023-07-28T12:27:26;100461.84;;;25.02
65738;BMP280;52478;51.844;6.582;2023-07-28T12:29:52;100469.69;;;25.03
65738;BMP280;52478;51.844;6.582;2023-07-28T12:32:19;100467.47;;;25.02
65738;BMP280;52478;51.844;6.582;2023-07-28T12:34:45;100470.25;;;25.02
65738;BMP280;52478;51.844;6.582;2023-07-28T12:37:12;100461.28;;;25.03
65738;BMP280;52478;51.844;6.582;2023-07-28T12:39:39;100460.53;;;25.03
65738;BMP280;52478;51.844;6.582;2023-07-28T12:42:05;100463.31;;;25.03
65738;BMP280;52478;51.844;6.582;2023-07-28T12:44:33;100466.13;;;25.03
65738;BMP280;52478;51.844;6.582;2023-07-28T12:47:00;100471.72;;;25.03
65738;BMP280;52478;51.844;6.582;2023-07-28T12:49:27;100464.66;;;25.02
65738;BMP280;52478;51.844;6.582;2023-07-28T12:51:54;100471.00;;;25.02
65738;BMP280;52478;51.844;6.582;2023-07-28T12:54:21;100463.94;;;25.01
65738;BMP280;52478;51.844;6.582;2023-07-28T12:56:48;100462.41;;;25.00
65738;BMP280;52478;51.844;6.582;2023-07-28T12:59:14;100455.31;;;24.99
65738;BMP280;52478;51.844;6.582;2023-07-28T13:01:42;100462.78;;;24.97
65738;BMP280;52478;51.844;6.582;2023-07-28T13:04:09;100463.53;;;24.97
65738;BMP280;52478;51.844;6.582;2023-07-28T13:06:35;100467.63;;;24.96
65738;BMP280;52478;51.844;6.582;2023-07-28T13:09:02;100472.50;;;24.96
65738;BMP280;52478;51.844;6.582;2023-07-28T13:11:29;100473.81;;;24.95
65738;BMP280;52478;51.844;6.582;2023-07-28T13:13:56;100466.16;;;24.95
65738;BMP280;52478;51.844;6.582;2023-07-28T13:16:23;100463.34;;;24.95
65738;BMP280;52478;51.844;6.582;2023-07-28T13:18:53;100473.97;;;24.97
65738;BMP280;52478;51.844;6.582;2023-07-28T13:21:19;100476.97;;;24.99
65738;BMP280;52478;51.844;6.582;2023-07-28T13:23:47;100465.78;;;24.99
65738;BMP280;52478;51.844;6.582;2023-07-28T13:26:13;100465.03;;;24.98
65738;BMP280;52478;51.844;6.582;2023-07-28T13:28:40;100470.63;;;24.98
65738;BMP280;52478;51.844;6.582;2023-07-28T13:31:12;100465.03;;;24.98
65738;BMP280;52478;51.844;6.582;2023-07-28T13:33:38;100471.38;;;24.99
65738;BMP280;52478;51.844;6.582;2023-07-28T13:36:06;100462.78;;;24.97
65738;BMP280;52478;51.844;6.582;2023-07-28T13:38:33;100464.28;;;24.98
65738;BMP280;52478;51.844;6.582;2023-07-28T13:41:00;100450.09;;;24.96
65738;BMP280;52478;51.844;6.582;2023-07-28T13:43:27;100457.19;;;24.97
65738;BMP280;52478;51.844;6.582;2023-07-28T13:45:54;100446.75;;;24.97
65738;BMP280;52478;51.844;6.582;2023-07-28T13:48:20;100450.28;;;24.98
65738;BMP280;52478;51.844;6.582;2023-07-28T13:50:47;100445.97;;;24.97
65738;BMP280;52478;51.844;6.582;2023-07-28T13:53:14;100446.75;;;24.97
65738;BMP280;52478;51.844;6.582;2023-07-28T13:55:41;100451.59;;;24.97
65738;BMP280;52478;51.844;6.582;2023-07-28T13:58:08;100445.97;;;24.97